x

9444090 - Port Angeles, Wa (ptaw1) Weather Station

11:36 - Sun 19th Feb 2017 All times are PST. -8 hours from GMT.

  • Wind
    5mph, 6mph gusts
  • Sea Temp 47°f
  • Aire Temp 40°f
  • Sea Pressure 1001.4mb
  • 9444090 - Port Angeles, Wa
  • 9444090 - Port Angeles, Wa

More Historic Weather Station data

Upgrade to MSW Pro to gain access to the past 30 days of data for over 8000 Wavebouys and Weather Stations around the globe.

Join Pro

Comparision Forecast

View Surf forecast
   
dom 02/19 11:36 5 6 mph 1001.4mb 47f 40f
11:30 6 9 mph 1001.4mb 47f 40f
11:24 3 5 mph 1001.3mb 47f 40f
11:18 5 7 mph 1001.3mb 47f 40f
11:12 2 5 mph 1001.3mb 47f 40f
11:06 5 6 mph 1001.3mb 47f 40f
11:00 3
mph
1001.3mb 47f 40f
10:36 2 3 mph 1001mb 47f 40f
10:30 2 5 mph 1000.9mb 47f 40f
10:24 2 3 mph 1000.8mb 47f 40f
10:18 2 5 mph 1000.8mb 47f 40f
10:12 3 5 mph 1000.7mb 47f 41f
10:06 5 6 mph 1000.7mb 47f 41f
10:00 2 5 mph 1000.6mb 47f 41f
9:36  -  2 mph 1000.4mb 47f 42f
9:30  -  2 mph 1000.5mb 47f 42f
9:24 3 6 mph 1000.4mb 47f 42f
9:18  -  3 mph 1000.2mb 47f 41f
9:12 3 6 mph 1000.1mb 47f 41f
9:06 2 7 mph 1000mb 47f 41f
9:00 3 8 mph 999.8mb 47f 41f
8:36 6 7 mph 999.4mb 47f 42f
8:30 7 10 mph 999.3mb 47f 42f
8:24 6 10 mph 999.2mb 47f 43f
8:18 6 9 mph 999.1mb 47f 43f
8:12 6 8 mph 999mb 47f 43f
8:06 6 10 mph 998.9mb 47f 43f
8:00 7 10 mph 998.8mb 47f 42f
7:36 3 6 mph 998.6mb 47f 43f
7:30 5
mph
998.6mb 47f 44f
7:24 1 3 mph 998.4mb 47f 44f
7:18 1 2 mph 998.4mb 47f 44f
7:12  -  5 mph 998.2mb 47f 44f
7:06 3 7 mph 998.1mb 47f 44f
7:00 6 7 mph 998mb 47f 44f
6:36 5 7 mph 997.7mb 47f 45f
6:30 3 6 mph 997.7mb 47f 45f
6:24 3 5 mph 997.7mb 47f 46f
6:18 1 2 mph 997.6mb 47f 46f
6:12  -  2 mph 997.6mb 47f 46f
6:06 2 3 mph 997.5mb 47f 46f
6:00 2 3 mph 997.2mb 47f 46f
5:36 2 3 mph 997mb 47f 47f
5:30 3 5 mph 997mb 47f 47f
5:24 2 3 mph 996.9mb 47f 47f
5:18 2 3 mph 996.8mb 47f 47f
5:12 2 3 mph 996.7mb 47f 47f
5:06 2 5 mph 996.6mb 47f 46f
5:00  -  3 mph 996.6mb 47f 47f
4:36 6 10 mph 996.1mb 47f 46f
4:30 9 11 mph 995.9mb 47f 46f
4:24 7 11 mph 996mb 47f 46f
4:18 11
mph
995.8mb 47f 46f
4:12 8 14 mph 995.8mb 47f 47f
4:06 5 6 mph 995.9mb 47f 47f
4:00 2 7 mph 995.8mb 47f 46f
3:36 7 9 mph 995.7mb 47f 46f
3:30 7 9 mph 995.7mb 47f 46f
3:24 5 6 mph 995.7mb 47f 46f
3:18 2 7 mph 995.4mb 47f 46f
3:12 6 7 mph 995.3mb 47f 46f
3:06 5 7 mph 995.3mb 47f 46f
3:00 3 6 mph 995.3mb 47f 46f
2:36 1 5 mph 995.5mb 47f 47f
2:30 1 5 mph 995.4mb 47f 46f
2:24 2 6 mph 995.2mb 47f 47f
2:18 3 5 mph 995.3mb 47f 47f
2:12 2 3 mph 995.3mb 47f 47f
2:06 2 3 mph 995.3mb 47f 47f
2:00 3 6 mph 995.1mb 47f 47f
1:36 2 6 mph 995.3mb 47f 47f
1:30 2 3 mph 995.4mb 47f 47f
1:24  -  5 mph 995.2mb 47f 48f
1:18 3 5 mph 995mb 47f 47f
1:12 3 5 mph 994.9mb 47f 47f
1:06 3 5 mph 994.9mb 47f 47f
1:00 5 7 mph 995mb 47f 46f
12:36 3 5 mph 995mb 47f 48f
12:30 3 5 mph 995mb 47f 49f
12:24 2 5 mph 995mb 47f 49f
12:18 3 5 mph 995.1mb 47f 48f
12:12 5 6 mph 995.2mb 47f 48f
12:06 5 7 mph 995.2mb 47f 47f
12:00 3 6 mph 995.1mb 47f 48f
11:36 3 5 mph 995.2mb 46f 46f
11:30  -  5 mph 995.4mb 46f 47f
11:24 2 5 mph 995.2mb 46f 48f
11:18 3 5 mph 995.2mb 46f 46f
11:12 1 2 mph 995.3mb 46f 46f
11:06 2 3 mph 995.2mb 46f 46f
11:00 2 5 mph 995.2mb 46f 46f
10:36 3 7 mph 994.6mb 46f 47f
10:30  -  3 mph 994.6mb 46f 48f
10:24 1 3 mph 994.6mb 46f 47f
10:18 1 5 mph 994.5mb 46f 47f
10:12 3 5 mph 994.5mb 46f 45f
10:06 2 5 mph 994.5mb 46f 45f
10:00 2 6 mph 994.3mb 46f 44f
9:36 5 6 mph 994.3mb 46f 44f
9:30 5 7 mph 994.3mb 46f 44f
9:24 2 6 mph 994.2mb 46f 44f
9:18 3 6 mph 994.2mb 46f 43f
9:12 5 7 mph 994.3mb 46f 43f
9:06 5 7 mph 994.3mb 46f 43f
9:00 2 5 mph 994.2mb 46f 43f
8:36 5
mph
994.1mb 46f 42f
8:30 2 3 mph 994.2mb 46f 42f
8:24 2 3 mph 994.2mb 46f 42f
8:18 2 6 mph 994.1mb 46f 42f
8:12 6 7 mph 994mb 47f 42f
8:06 3 5 mph 994mb 47f 42f
8:00 2 5 mph 994mb 47f 41f
7:36 5 6 mph 993.8mb 47f 40f
7:30 5 7 mph 993.8mb 47f 41f
7:24 6 7 mph 993.8mb 47f 40f
7:18 5 6 mph 993.7mb 47f 40f
7:12 6 7 mph 993.7mb 47f 41f
7:06 5 6 mph 993.7mb 47f 41f
7:00 5 6 mph 993.7mb 47f 41f
6:36 5 7 mph 993.7mb 47f 41f
6:30 5 6 mph 993.6mb 47f 41f
6:24 5 6 mph 993.7mb 47f 41f
6:18 6 7 mph 993.7mb 47f 41f
6:12 6 7 mph 993.7mb 47f 42f
6:06 6 8 mph 993.7mb 47f 42f
6:00 5 6 mph 993.6mb 47f 42f
5:36 1 3 mph 993.7mb 47f 42f
5:30 3 5 mph 993.7mb 47f 42f
5:24 5 6 mph 993.8mb 47f 42f
5:18 6 7 mph 993.8mb 47f 42f
5:12 5 6 mph 993.7mb 47f 42f
5:06 5 6 mph 993.7mb 47f 42f
5:00 5 6 mph 993.6mb 47f 42f
4:36 3
mph
993.6mb 47f 42f
4:30 2 3 mph 993.7mb 47f 42f
4:24 3 6 mph 993.7mb 47f 42f
4:18 5 6 mph 993.8mb 47f 42f
4:12 3 6 mph 993.9mb 47f 42f
4:06 5 6 mph 994mb 47f 42f
4:00 3 5 mph 994.1mb 47f 42f
3:36 5 6 mph 994.1mb 47f 42f
3:30 6
mph
994mb 47f 42f
3:24 5 6 mph 994.1mb 47f 42f
3:18 5 6 mph 994.2mb 47f 42f
3:12 3 6 mph 994.2mb 47f 43f
3:06 3 6 mph 994.3mb 47f 43f
3:00 2 5 mph 994.4mb 47f 43f
2:36 5 6 mph 994.6mb 47f 43f
2:30 5 7 mph 994.6mb 47f 43f
2:24 5 7 mph 994.6mb 47f 43f
2:18 6 7 mph 994.7mb 47f 43f
2:12 3 6 mph 994.7mb 47f 43f
2:06 3 6 mph 994.7mb 47f 43f
2:00 3 6 mph 994.7mb 47f 43f
1:36 2 6 mph 994.8mb 47f 43f
1:30 3 7 mph 994.9mb 47f 43f
1:24 3 6 mph 994.8mb 47f 43f
1:18 2 6 mph 995mb 47f 43f
1:12 3 6 mph 995mb 47f 43f
1:06 1 2 mph 995.1mb 47f 42f
1:00  -  2 mph 995.1mb 47f 42f
12:36 3 6 mph 995.2mb 47f 42f
12:30 5 6 mph 995.2mb 47f 42f
12:24 3 6 mph 995.3mb 47f 42f
12:18 3 5 mph 995.4mb 47f 42f
12:12 3 5 mph 995.3mb 47f 42f
12:06 1 3 mph 995.3mb 47f 42f
12:00 3 5 mph 995.3mb 47f 42f
sáb 02/18 11:54 2 5 mph 995.4mb 47f 42f
11:48 3 5 mph 995.5mb 47f 42f
11:36 3 6 mph 995.5mb 47f 43f
11:30 5 6 mph 995.6mb 47f 42f
11:24 3 5 mph 995.7mb 47f 42f
11:18 3 6 mph 995.7mb 47f 42f
11:12 3 6 mph 995.7mb 47f 43f
11:06 3 5 mph 995.7mb 47f 43f
11:00 2 3 mph 995.8mb 47f 43f
10:54 1
mph
995.8mb 47f 43f
10:48 1 3 mph 995.8mb 47f 42f
10:36 2 3 mph 995.8mb 47f 42f
10:30 1 2 mph 995.7mb 47f 43f
10:24  -  2 mph 995.7mb 47f 42f
10:18 2 3 mph 995.8mb 47f 43f
10:12 2
mph
995.8mb 47f 43f
10:06 2 3 mph 995.7mb 47f 43f
10:00 1 3 mph 995.8mb 47f 43f
9:54 2 5 mph 995.8mb 47f 43f
9:48 3 5 mph 995.8mb 47f 43f
9:36 2
mph
995.7mb 47f 43f
9:30  -  3 mph 995.7mb 47f 43f
9:24 1 5 mph 995.8mb 47f 43f
9:18 3 5 mph 995.8mb 47f 43f
9:12 3 5 mph 995.8mb 47f 43f
9:06  -  2 mph 995.7mb 47f 43f
9:00  -  2 mph 995.7mb 47f 43f
8:54 1 2 mph 995.7mb 47f 43f
8:48  -  1 mph 995.8mb 47f 43f
8:36  -  1 mph 995.8mb 47f 43f
8:30  -  1 mph 995.7mb 47f 43f
8:24 1 2 mph 995.7mb 47f 43f
8:18 2 5 mph 995.7mb 47f 43f
8:12 5
mph
995.6mb 47f 43f
8:06 5 6 mph 995.6mb 47f 43f
8:00 5 6 mph 995.5mb 47f 43f
7:54 5 6 mph 995.5mb 47f 43f
7:48 5 7 mph 995.6mb 47f 43f
7:36 5 7 mph 995.7mb 47f 44f
7:30 7 9 mph 995.7mb 47f 43f
7:24 7 8 mph 995.6mb 47f 43f
7:18 8 9 mph 995.6mb 47f 43f
7:12 7 8 mph 995.6mb 47f 43f
7:06 7 8 mph 995.6mb 47f 44f
7:00 5 7 mph 995.6mb 47f 43f
6:54 6 7 mph 995.7mb 47f 43f
6:48 6 7 mph 995.7mb 47f 43f
6:36 5 6 mph 995.8mb 47f 43f
6:30 6
mph
995.7mb 47f 43f
6:24 6 7 mph 995.7mb 47f 43f
6:18 5 6 mph 995.7mb 47f 43f
6:12 3
mph
995.7mb 47f 43f
6:06 3 6 mph 995.7mb 47f 43f
6:00 5 6 mph 995.7mb 47f 43f
5:54 6 7 mph 995.7mb 47f 43f
5:48 5 7 mph 995.7mb 47f 43f
5:36 6 7 mph 995.7mb 47f 43f
5:30 6 7 mph 995.7mb 47f 43f
5:24 6 7 mph 995.7mb 47f 43f
5:18 6
mph
995.7mb 47f 43f
5:12 6
mph
995.7mb 47f 43f
5:06 5 6 mph 995.7mb 47f 43f
5:00 5 6 mph 995.7mb 47f 44f
4:54 5 9 mph 995.7mb 47f 44f
4:48 6 8 mph 995.7mb 47f 44f
4:36 6 8 mph 995.8mb 47f 44f
4:30 8 9 mph 995.8mb 47f 44f
4:24 8 9 mph 995.8mb 47f 44f
4:18 7 9 mph 995.8mb 47f 44f
4:12 7 10 mph 995.7mb 47f 43f
4:06 6 8 mph 995.7mb 47f 43f
4:00 6 8 mph 995.8mb 47f 43f
3:36 6 8 mph 995.8mb 47f 43f
3:30 6 8 mph 995.7mb 46f 43f
3:24 6 8 mph 995.7mb 46f 43f
3:18 7 9 mph 995.7mb 46f 43f
3:12 7 9 mph 995.8mb 46f 43f
3:06 7 8 mph 995.9mb 46f 44f
3:00 6 7 mph 995.8mb 46f 43f
2:54 7 8 mph 995.8mb 46f 44f
2:48 7 9 mph 995.7mb 46f 44f
2:36 6 8 mph 995.8mb 46f 44f
2:30 8 11 mph 995.8mb 46f 44f
2:24 7 8 mph 995.7mb 46f 43f
2:18 8 13 mph 995.7mb 46f 44f
2:12 9 13 mph 995.7mb 46f 44f
2:06 8 11 mph 995.7mb 46f 43f
2:00 9 11 mph 995.7mb 46f 43f
1:54 9 10 mph 995.7mb 46f 43f
1:48 7 9 mph 995.8mb 46f 43f
1:36 8 10 mph 995.8mb 46f 44f
1:30 9 11 mph 995.8mb 46f 43f
1:24 8 10 mph 995.8mb 46f 43f
1:18 9 11 mph 995.8mb 46f 43f
1:12 9 11 mph 995.9mb 46f 43f
1:06 10 11 mph 995.9mb 46f 43f
1:00 9 11 mph 995.9mb 46f 43f
12:54 10 11 mph 996mb 46f 43f
12:48 10 13 mph 995.9mb 46f 43f
12:36 10 11 mph 996mb 46f 43f
12:30 8 10 mph 996.2mb 46f 43f
12:24 9 11 mph 996.2mb 46f 43f
12:18 8 9 mph 996.2mb 46f 43f
12:12 9 10 mph 996.4mb 46f 43f
12:06 8 9 mph 996.4mb 46f 43f
12:00 7 9 mph 996.5mb 46f 43f
11:54 7 8 mph 996.5mb 46f 43f
11:48 7 8 mph 996.6mb 46f 43f
11:36 8 10 mph 996.7mb 46f 44f
11:30 9 10 mph 996.7mb 46f 44f
11:24 6 9 mph 996.8mb 46f 44f
11:18 2 5 mph 996.9mb 46f 44f
11:12 5 6 mph 996.9mb 46f 44f
11:06 5
mph
996.8mb 46f 44f
11:00 3 6 mph 996.9mb 46f 43f
10:54 3 5 mph 996.9mb 46f 44f
10:48 3 5 mph 996.9mb 46f 44f
10:36 5 6 mph 996.9mb 46f 44f
10:30 6
mph
997mb 46f 44f
10:24 6
mph
997mb 46f 44f
10:18 5 7 mph 997mb 46f 44f
10:12 3 5 mph 997.1mb 46f 44f
10:06 2 3 mph 997.1mb 46f 44f
10:00 1 2 mph 997.1mb 46f 44f
9:54 2 3 mph 997.2mb 46f 44f
9:48 2 5 mph 997.1mb 46f 44f
9:36 7 13 mph 997.2mb 46f 44f
9:30 11 13 mph 997.2mb 46f 44f
9:24 10 11 mph 997.2mb 46f 44f
9:18 10 13 mph 997.3mb 46f 44f
9:12 9 10 mph 997.3mb 46f 44f
9:06 7 10 mph 997.4mb 46f 44f
9:00 7 8 mph 997.4mb 46f 44f
8:54 6 9 mph 997.5mb 46f 44f
8:48 6 8 mph 997.6mb 46f 44f
8:36 2 6 mph 997.7mb 46f 44f
8:30 5 7 mph 997.7mb 46f 44f
8:24 5 7 mph 997.7mb 46f 44f
8:18 6 7 mph 997.7mb 46f 44f
8:12 6 7 mph 997.7mb 46f 43f
8:06 5 6 mph 997.8mb 46f 43f
8:00 5 6 mph 997.8mb 46f 43f
7:54 5 6 mph 997.8mb 46f 43f
7:48 5 6 mph 997.8mb 46f 43f
7:36 5 6 mph 997.9mb 46f 43f
7:30 3 6 mph 997.9mb 46f 43f
7:24 5 7 mph 997.9mb 46f 43f
7:18 5 7 mph 997.9mb 46f 44f
7:12 5 7 mph 997.9mb 46f 44f
7:06 5 6 mph 997.9mb 46f 44f
7:00 3 5 mph 997.9mb 46f 44f
6:54 3 5 mph 998.1mb 46f 44f
6:48 3 5 mph 998mb 46f 44f
6:36 3 7 mph 998.2mb 46f 44f
6:30 5 6 mph 998.2mb 46f 44f
6:24 3 6 mph 998.3mb 46f 44f
6:18 6 7 mph 998.2mb 46f 45f
6:12 3 7 mph 998.2mb 46f 45f
6:06 6 10 mph 998.3mb 46f 44f
6:00 5 6 mph 998.4mb 46f 45f
5:36 5 6 mph 998.4mb 46f 45f
5:30 5 7 mph 998.5mb 46f 45f
5:24 6 7 mph 998.5mb 46f 45f
5:18 6 8 mph 998.5mb 46f 45f
5:12 6 9 mph 998.5mb 46f 45f
5:06 6 7 mph 998.5mb 46f 44f
5:00 5 6 mph 998.5mb 46f 44f
4:54 5 6 mph 998.5mb 46f 44f
4:48 3 6 mph 998.5mb 46f 44f
4:36 3
mph
998.5mb 46f 44f
4:30 2 3 mph 998.5mb 46f 44f
4:24 2
mph
998.6mb 46f 44f
4:18 2
mph
998.6mb 46f 44f
4:12 2 3 mph 998.7mb 46f 44f
4:06 2 5 mph 998.7mb 46f 44f
4:00 3 6 mph 998.8mb 46f 44f
3:54 3 5 mph 998.8mb 46f 44f
3:48 5 6 mph 998.8mb 46f 44f
3:36 3 5 mph 998.7mb 46f 44f
3:30 5 6 mph 998.7mb 46f 45f
3:24 5 7 mph 998.8mb 46f 45f
3:18 6 8 mph 998.8mb 46f 45f
3:12 5 7 mph 998.8mb 46f 45f
3:06 5 6 mph 998.9mb 46f 45f
3:00 6 9 mph 998.8mb 46f 45f
2:54 6 8 mph 998.9mb 46f 45f
2:48 6 7 mph 999mb 46f 46f
2:36 6 9 mph 999.1mb 46f 45f
2:30 7 9 mph 999.1mb 46f 45f
2:24 6 9 mph 999.1mb 46f 45f
2:18 6 8 mph 999.2mb 46f 45f
2:12 6 9 mph 999.3mb 46f 45f
2:06 7 8 mph 999.3mb 46f 45f
2:00 7 9 mph 999.3mb 46f 45f
1:54 6 8 mph 999.3mb 46f 45f
1:48 7 9 mph 999.3mb 46f 45f
1:36 7 9 mph 999.3mb 46f 45f
1:30 7 8 mph 999.3mb 46f 45f
1:24 6
mph
999.4mb 46f 46f
1:18 6 7 mph 999.4mb 46f 46f
1:12 6 7 mph 999.5mb 46f 46f
1:06 6 8 mph 999.6mb 46f 46f
1:00 6 8 mph 999.6mb 46f 46f
12:54 7 8 mph 999.6mb 46f 46f
12:48 7 10 mph 999.7mb 46f 46f
12:36 7 9 mph 999.7mb 46f 46f
12:30 6 8 mph 999.7mb 46f 46f
12:24 6 7 mph 999.8mb 46f 46f
12:18 6 7 mph 999.9mb 46f 46f
12:12 5 7 mph 999.9mb 46f 46f
12:06 6 7 mph 999.9mb 46f 46f
12:00 3 6 mph 1000mb 46f 46f
vie 02/17 11:54 3 6 mph 1000mb 46f 46f
11:48 3 6 mph 1000.1mb 46f 46f
11:36 5 6 mph 1000.3mb 46f 46f
11:30 5 6 mph 1000.4mb 46f 46f
11:24 5 7 mph 1000.4mb 46f 46f
11:18 5 7 mph 1000.5mb 46f 46f
11:12 3 6 mph 1000.4mb 46f 46f
11:06 3 5 mph 1000.5mb 46f 45f
11:00 3 5 mph 1000.5mb 46f 45f
10:54 3 6 mph 1000.6mb 46f 45f
10:48 3 5 mph 1000.7mb 46f 44f
10:36 3 6 mph 1000.8mb 46f 44f
10:30 2 5 mph 1000.8mb 46f 44f
10:24 3 5 mph 1000.7mb 46f 44f
10:18 3 6 mph 1000.8mb 46f 44f
10:12 3 6 mph 1000.8mb 46f 44f
10:06 3 6 mph 1000.9mb 46f 44f
10:00 3
mph
1000.9mb 46f 44f
9:54 2 3 mph 1001mb 46f 44f
9:48 3 5 mph 1001mb 46f 44f
9:36 3 5 mph 1001.2mb 46f 44f
9:30 3 5 mph 1001.2mb 46f 44f
9:24 3 5 mph 1001.3mb 46f 44f
9:18 3
mph
1001.3mb 46f 44f
9:12 3 6 mph 1001.3mb 46f 44f
9:06 3
mph
1001.3mb 46f 44f
9:00 3
mph
1001.4mb 46f 44f
8:54 3 5 mph 1001.4mb 46f 45f
8:48 5
mph
1001.4mb 46f 45f
8:36 3 6 mph 1001.4mb 46f 45f
8:30 3 6 mph 1001.4mb 46f 45f
8:24 3 6 mph 1001.5mb 46f 45f
8:18 3 5 mph 1001.5mb 46f 45f
8:12 2 3 mph 1001.6mb 46f 45f
8:06 3
mph
1001.6mb 46f 45f
8:00 3 6 mph 1001.6mb 46f 45f
7:54 5
mph
1001.6mb 46f 45f
7:48 3 6 mph 1001.7mb 46f 45f
7:36 5 7 mph 1001.8mb 46f 45f
7:30 5 6 mph 1001.9mb 46f 45f
7:24 5 6 mph 1002mb 46f 45f
7:18 5 6 mph 1002.1mb 46f 45f
7:12 3 5 mph 1002.1mb 46f 45f
7:06 3 5 mph 1002.1mb 46f 45f
7:00 3 5 mph 1002.2mb 46f 45f
6:54 5 6 mph 1002.3mb 46f 45f
6:48 3 5 mph 1002.4mb 46f 45f
6:36 5 6 mph 1002.4mb 46f 45f
6:30 3 5 mph 1002.5mb 46f 45f
6:24 2 3 mph 1002.5mb 46f 45f
6:18 3
mph
1002.6mb 46f 45f
6:12 2
mph
1002.5mb 46f 45f
6:06 2
mph
1002.5mb 46f 45f
6:00  -  1 mph 1002.4mb 46f 45f
5:54 1 2 mph 1002.5mb 46f 46f
5:48 2 3 mph 1002.5mb 46f 46f
5:36 2 3 mph 1002.6mb 46f 45f
5:30 2 3 mph 1002.6mb 46f 46f
5:24 2 3 mph 1002.7mb 46f 46f
5:18  -  1 mph 1002.7mb 46f 46f
5:12  -  1 mph 1002.6mb 46f 46f
5:06  -  1 mph 1002.7mb 46f 47f
5:00  -  2 mph 1002.7mb 46f 47f
4:36  -  2 mph 1002.9mb 46f 46f
4:30 2 3 mph 1003mb 46f 46f
4:24 1 2 mph 1003mb 46f 47f
4:18 1 2 mph 1003.1mb 46f 46f
4:12  -  2 mph 1003.2mb 46f 46f
4:06 1 2 mph 1003.2mb 46f 46f
4:00 1 2 mph 1003.3mb 46f 46f
3:54  -  1 mph 1003.3mb 46f 46f
3:48  -  1 mph 1003.3mb 46f 46f
3:36  -  1 mph 1003.4mb 46f 46f
3:30  -  2 mph 1003.5mb 46f 46f
3:24 2 5 mph 1003.5mb 46f 46f
3:18 1 2 mph 1003.5mb 46f 46f
3:12 1 2 mph 1003.5mb 46f 46f
3:06 2 3 mph 1003.6mb 46f 46f
3:00 2 3 mph 1003.6mb 46f 46f
2:54 1 5 mph 1003.7mb 46f 46f
2:48 3 5 mph 1003.6mb 46f 46f
2:36 3 8 mph 1003.8mb 46f 46f
2:30 5 7 mph 1003.9mb 46f 46f
2:24 3 5 mph 1003.9mb 46f 46f
2:18 5 7 mph 1004mb 46f 46f
2:12 6 7 mph 1004.1mb 46f 46f
2:06 5 6 mph 1004.1mb 46f 46f
2:00 5 6 mph 1004.2mb 46f 46f
1:54 3
mph
1004.3mb 46f 46f
1:48 3
mph
1004.4mb 45f 46f
1:36 1 6 mph 1004.5mb 45f 46f
1:30 2 6 mph 1004.7mb 45f 46f
1:24 2 5 mph 1004.8mb 45f 46f
1:18 2 5 mph 1004.8mb 45f 46f
1:12 1 5 mph 1004.9mb 45f 46f
1:06 2 6 mph 1005mb 45f 46f
1:00 1 7 mph 1005.1mb 45f 46f
12:54 6 7 mph 1005.2mb 45f 47f
12:48 5 8 mph 1005.3mb 45f 47f
12:36  -  1 mph 1005.5mb 45f 47f
12:30 1 2 mph 1005.5mb 45f 46f
12:24 1 2 mph 1005.6mb 45f 46f
12:18 2 3 mph 1005.7mb 45f 46f
12:12 2 3 mph 1005.7mb 45f 46f
12:06 2
mph
1005.8mb 45f 46f
12:00 2 3 mph 1005.8mb 45f 46f
11:54 1 2 mph 1005.8mb 45f 46f
11:48 3
mph
1005.8mb 45f 46f
11:36 2 3 mph 1006mb 45f 46f
11:30 3 5 mph 1006.1mb 45f 46f
11:24 3 5 mph 1006.1mb 45f 46f
11:18 2 3 mph 1006.1mb 45f 46f
11:12 2 3 mph 1006.2mb 45f 46f
11:06 3 5 mph 1006.2mb 45f 46f
11:00 3 6 mph 1006.3mb 45f 46f
10:54 6 7 mph 1006.4mb 45f 46f
10:48 6 7 mph 1006.4mb 45f 46f
10:36 7 8 mph 1006.5mb 45f 45f
10:30 7 9 mph 1006.5mb 45f 46f
10:24 2 6 mph 1006.4mb 45f 46f
10:18 2 3 mph 1006.4mb 45f 46f
10:12  -  3 mph 1006.5mb 45f 45f
10:06 5 6 mph 1006.6mb 45f 45f
10:00 6
mph
1006.6mb 45f 45f
9:36 3 5 mph 1006.7mb 45f 45f
9:30 5
mph
1006.7mb 45f 44f
9:24 5
mph
1006.8mb 45f 44f
9:18 5
mph
1006.8mb 45f 44f
9:12 3 5 mph 1006.8mb 45f 44f
9:06 3 5 mph 1006.8mb 45f 43f
9:00 5 6 mph 1006.9mb 45f 43f
8:54 2 3 mph 1006.9mb 45f 43f
8:48 2 3 mph 1006.9mb 45f 43f
8:36  -  1 mph 1006.9mb 45f 43f
8:30  -  1 mph 1006.9mb 45f 42f
8:24 1
mph
1006.9mb 45f 41f
8:18 1 2 mph 1006.9mb 45f 40f
8:12 2 3 mph 1006.9mb 45f 40f
8:06 3
mph
1006.9mb 45f 40f
8:00 3 6 mph 1006.8mb 45f 40f
7:54 5 6 mph 1006.8mb 45f 40f
7:48 2
mph
1006.8mb 45f 40f
7:36 3
mph
1006.9mb 45f 40f
7:30 3 5 mph 1006.9mb 45f 40f
7:24 2 3 mph 1007mb 45f 40f
7:18 2
mph
1006.9mb 45f 41f
7:12 2 3 mph 1006.9mb 45f 41f
7:06 2 3 mph 1006.9mb 45f 41f
7:00 1 2 mph 1006.9mb 45f 41f
6:54 2 5 mph 1006.9mb 45f 41f
6:48 3
mph
1007mb 45f 41f
6:36 2 3 mph 1007.1mb 45f 41f
6:30 1 3 mph 1007.1mb 45f 41f
6:24 1 2 mph 1007.1mb 45f 41f
6:18 2 3 mph 1007.1mb 45f 41f
6:12 3
mph
1007.1mb 45f 41f
6:06 1 3 mph 1007.2mb 45f 41f
6:00 2 3 mph 1007.2mb 45f 41f
5:54 3
mph
1007.1mb 45f 41f
5:48 2 3 mph 1007.2mb 45f 41f
5:36 3 5 mph 1007.2mb 45f 41f
5:30 3 6 mph 1007.1mb 45f 41f
5:24 5 6 mph 1007.1mb 45f 41f
5:18 3 6 mph 1007.1mb 45f 41f
5:12 6 7 mph 1007.1mb 45f 41f
5:06 6 7 mph 1007mb 45f 41f
5:00 1 2 mph 1007mb 45f 41f
4:54 3 7 mph 1007mb 45f 41f
4:48 5 6 mph 1006.9mb 45f 40f
4:36 3 5 mph 1007mb 45f 41f
4:30 2 3 mph 1007mb 45f 40f
4:24 2 3 mph 1007mb 45f 40f
4:18 2 3 mph 1007.1mb 45f 40f
4:12 2 3 mph 1007.1mb 45f 40f
4:06 3
mph
1007.1mb 45f 40f
4:00 1 3 mph 1007.1mb 45f 41f
3:54 1 2 mph 1007.1mb 45f 40f
3:48 1 2 mph 1007mb 45f 41f
3:36 1 2 mph 1007.1mb 45f 41f
3:30 1 3 mph 1007.2mb 45f 41f
3:24 3 5 mph 1007.3mb 45f 41f
3:18 3 5 mph 1007.3mb 45f 41f
3:12 2 3 mph 1007.4mb 45f 41f
3:06 3 5 mph 1007.5mb 45f 41f
3:00 5
mph
1007.5mb 45f 41f
2:54 2 5 mph 1007.4mb 45f 41f
2:48 1 3 mph 1007.4mb 45f 41f
2:36 2 3 mph 1007.3mb 45f 41f
2:30  -  2 mph 1007.2mb 45f 41f
2:24  -  1 mph 1007.1mb 45f 40f
2:18 1 2 mph 1007mb 45f 40f
2:12 2 3 mph 1007mb 45f 41f
2:06 2 3 mph 1006.9mb 45f 41f
2:00 2 3 mph 1006.9mb 45f 40f
1:54 2 3 mph 1006.9mb 45f 41f
1:48 2
mph
1006.9mb 45f 40f
1:36 2
mph
1006.9mb 45f 40f
1:30 2 3 mph 1006.8mb 45f 40f
1:24 2 3 mph 1006.8mb 45f 40f
1:18 2 3 mph 1006.9mb 45f 40f
1:12 1 6 mph 1006.8mb 45f 40f
1:06 5 6 mph 1006.8mb 45f 40f
1:00 5 6 mph 1006.7mb 45f 40f
12:54 3 5 mph 1006.7mb 45f 40f
12:48  -  5 mph 1006.7mb 45f 40f
12:36 2 5 mph 1006.5mb 45f 41f
12:30 2 6 mph 1006.6mb 45f 41f
12:24 5 6 mph 1006.5mb 45f 41f
12:18 1 3 mph 1006.4mb 45f 41f
12:12 3 5 mph 1006.2mb 45f 41f
12:06 3
mph
1006.1mb 45f 42f
12:00 2 3 mph 1006.1mb 45f 42f
jue 02/16 11:54 2 5 mph 1006.1mb 45f 42f
11:48 1 5 mph 1006mb 45f 42f
11:36 2 3 mph 1005.9mb 45f 42f
11:30 1 3 mph 1005.8mb 45f 42f
11:24 3 6 mph 1005.7mb 45f 43f
11:18 5 6 mph 1005.7mb 45f 43f
11:12 5 6 mph 1005.7mb 45f 43f
11:06 2 3 mph 1005.8mb 45f 43f
11:00 3
mph
1005.8mb 45f 43f
10:36 3 5 mph 1005.7mb 45f 45f
10:30 3 6 mph 1005.5mb 45f 44f
10:24 6
mph
1005.6mb 45f 44f
10:18 2 6 mph 1005.4mb 45f 44f
10:12 3
mph
1005.4mb 45f 44f
10:06 2 3 mph 1005.3mb 45f 44f
10:00 2 3 mph 1005.1mb 45f 45f
9:36 2 5 mph 1004.7mb 45f 44f
9:30 3 6 mph 1004.6mb 45f 44f
9:24 5 6 mph 1004.5mb 45f 44f
9:18 5 6 mph 1004.4mb 45f 44f
9:12 3
mph
1004.2mb 45f 44f
9:06 1 2 mph 1004.1mb 45f 44f
9:00 2 5 mph 1004mb 45f 44f
8:54 2 5 mph 1003.9mb 45f 44f
8:48 5 6 mph 1003.8mb 45f 44f
8:36 3
mph
1003.6mb 45f 44f
8:30 1 2 mph 1003.5mb 45f 45f
8:24 2 3 mph 1003.5mb 45f 45f
8:18 3 5 mph 1003.4mb 45f 45f
8:12 2 5 mph 1003.3mb 45f 45f
8:06 3 5 mph 1003.3mb 45f 45f
8:00  -  1 mph 1003.2mb 45f 45f
7:54 2 3 mph 1003.2mb 45f 45f
7:48 2 3 mph 1003.2mb 45f 45f
7:36  -  2 mph 1003.2mb 45f 46f
7:30  -  2 mph 1003.1mb 45f 46f
7:24 2 3 mph 1003.1mb 45f 46f
7:18 2 3 mph 1002.9mb 45f 46f
7:12 1 2 mph 1002.9mb 45f 46f
7:06  -  2 mph 1002.8mb 45f 46f
7:00 2
mph
1002.7mb 45f 46f
6:54 2 3 mph 1002.6mb 45f 46f
6:48 2 5 mph 1002.5mb 45f 46f
6:36 5 7 mph 1002.3mb 45f 46f
6:30 2 3 mph 1002.2mb 45f 46f
6:24 1 3 mph 1002.1mb 45f 46f
6:18 2 3 mph 1002mb 45f 46f
6:12 2 3 mph 1001.9mb 45f 46f
6:06 3 6 mph 1001.8mb 45f 46f
6:00 5 6 mph 1001.7mb 45f 46f
5:54 3 6 mph 1001.6mb 45f 46f
5:48 3 5 mph 1001.6mb 45f 46f
5:36 5 8 mph 1001.5mb 45f 47f
5:30 6 11 mph 1001.4mb 45f 47f
5:24 9 14 mph 1001.3mb 45f 47f
5:18 10 15 mph 1001.3mb 45f 47f
5:12 6 13 mph 1001.3mb 45f 47f
5:06 7 11 mph 1001.2mb 45f 47f
5:00 5 8 mph 1001.1mb 45f 47f
4:54 6 9 mph 1001.1mb 45f 47f
4:48 6 10 mph 1001mb 45f 47f
4:36 5 8 mph 1000.9mb 45f 47f
4:30 7 10 mph 1000.8mb 45f 47f
4:24 7 13 mph 1000.8mb 45f 47f
4:18 9 11 mph 1000.7mb 45f 47f
4:12 8 10 mph 1000.6mb 45f 47f
4:06 8 11 mph 1000.6mb 45f 47f
4:00 8 13 mph 1000.6mb 45f 47f
3:54 6 9 mph 1000.5mb 45f 47f
3:48 6 10 mph 1000.4mb 45f 47f
3:36 8 11 mph 1000.2mb 45f 47f
3:30 8 13 mph 1000.1mb 45f 47f
3:24 8 10 mph 1000mb 45f 47f
3:18 8 11 mph 999.9mb 45f 47f
3:12 8 10 mph 999.8mb 45f 47f
3:06 8 11 mph 999.7mb 45f 47f
3:00 7 11 mph 999.6mb 45f 47f
2:54 9 11 mph 999.5mb 45f 48f
2:48 10 15 mph 999.4mb 45f 48f
2:36 9 14 mph 999.3mb 45f 48f
2:30 10 13 mph 999.2mb 45f 48f
2:24 8 11 mph 999mb 45f 48f
2:18 7 10 mph 999mb 45f 49f
2:12 8 10 mph 999mb 45f 48f
2:06 9 11 mph 998.9mb 45f 48f
2:00 9 11 mph 998.9mb 45f 48f
1:54 7 9 mph 998.9mb 45f 48f
1:48 6 8 mph 998.8mb 45f 49f
1:36 5 9 mph 998.7mb 45f 48f
1:30 7 9 mph 998.7mb 45f 48f
1:24 7 10 mph 998.7mb 45f 48f
1:18 7 9 mph 998.7mb 45f 48f
1:12 6 8 mph 998.6mb 45f 48f
1:06 5 8 mph 998.6mb 45f 48f
1:00 7 8 mph 998.6mb 45f 48f
12:54 7 9 mph 998.5mb 45f 48f
12:48 7 9 mph 998.5mb 45f 48f
12:36 7 11 mph 998.4mb 45f 48f
12:30 5 9 mph 998.4mb 45f 48f
12:24 7 8 mph 998.4mb 45f 47f
12:18 6 8 mph 998.3mb 45f 47f
12:12 7 9 mph 998.3mb 45f 47f
12:06 3 9 mph 998.3mb 45f 47f
12:00 8 11 mph 998.3mb 45f 47f
11:54 6 7 mph 998.2mb 45f 47f
11:48 5 9 mph 998.2mb 45f 47f
11:36 7 9 mph 998.1mb 45f 47f
11:30 8 9 mph 997.9mb 45f 47f
11:24 6 8 mph 997.8mb 45f 47f
11:18 6 7 mph 997.7mb 45f 47f
11:12 7 11 mph 997.6mb 45f 47f
11:06 10 13 mph 997.6mb 45f 47f
11:00 3 7 mph 997.6mb 45f 47f
10:54 8 10 mph 997.5mb 45f 48f
10:48 6 9 mph 997.4mb 45f 48f
10:36 1 2 mph 997.3mb 45f 48f
10:30 1 3 mph 997.2mb 45f 48f
10:24 3 6 mph 997.1mb 45f 47f
10:18 1 2 mph 997mb 45f 48f
10:12 1 3 mph 996.9mb 45f 48f
10:06 2 5 mph 996.8mb 45f 48f
10:00 3 5 mph 996.7mb 45f 47f
9:54 2 5 mph 996.6mb 45f 47f
9:48 3 6 mph 996.5mb 45f 47f
9:36 5 6 mph 996.2mb 45f 47f
9:30 5 7 mph 996.2mb 45f 47f
9:24 2 6 mph 996.1mb 45f 47f
9:18 3 6 mph 995.9mb 45f 47f
9:12  -  mph 995.8mb 45f 47f
9:06  -  1 mph 995.8mb 45f 47f
9:00  -  2 mph 995.8mb 45f 47f
8:54 2 3 mph 995.8mb 45f 47f